Estación Meteorológica Peña el Pijo (Robertgarden) [ 04/22/18 23:46:04 CEST ]

Fecha Hora Presion(HPa) Temp (°C) Humedad % Rocio (°C) Viento ( m/s) Direccion Lluvia 1Hora(mm) Lluvia 24H(mm) LLuvia Total(mm)
2018-Feb-22 01:01:45 997.000 2.3 78 -1.2         82.36
2018-Feb-22 02:01:46 996.800 2.3 79 -1.0     0.51 0.51 82.88
2018-Feb-22 03:04:11 996.200 1.2 80 -1.9       0.51 82.88
2018-Feb-22 04:01:42 995.900 0.6 82 -2.1       0.51 82.88
2018-Feb-22 05:01:40 995.700 0.3 83 -2.2       0.51 82.88
2018-Feb-22 06:01:38 995.700 -0.7 83 -3.2       0.51 82.88
2018-Feb-22 07:01:32 995.700 -1.1 83 -3.6       0.51 82.88
2018-Feb-22 08:01:45 995.600 -1.6 84 -4.0       0.51 82.88
2018-Feb-22 09:01:41 995.600 0.3 85 -1.9       0.51 82.88
2018-Feb-22 10:01:41 995.200 5.3 80 2.1     0.51 1.03 83.39
2018-Feb-22 11:01:28 994.800 8.1 57 0.0 1.4 NW   1.03 83.39
2018-Feb-22 12:01:36 994.800 9.8 46 -1.3 2.3 N   1.03 83.39
2018-Feb-22 13:01:40 994.600 9.3 38 -4.4       1.03 83.39
2018-Feb-22 14:01:34 994.500 9.9 28 -7.9 10.4 WNW   1.03 83.39
2018-Feb-22 15:01:49 993.800 10.9 26 -8.1       1.03 83.39
2018-Feb-22 16:01:36 993.300 10.5 26 -8.3       1.03 83.39
2018-Feb-22 17:01:43 993.500 8.4 29 -8.7       1.03 83.39
2018-Feb-22 18:01:57 994.000 6.4 33 -8.8 1.7 WNW   1.03 83.39
2018-Feb-22 19:01:39 994.400 5.2 35 -9.1       1.03 83.39
2018-Feb-22 20:01:44 994.700 4.6 34 -10.0       1.03 83.39
2018-Feb-22 21:01:45 994.900 3.7 36 -10.1       1.03 83.39
2018-Feb-22 22:01:44 995.200 2.9 41 -9.1       1.03 83.39
2018-Feb-22 23:01:49 995.400 2.6 42 -9.1       1.03 83.39

Temperatura Máxima:10°    Temperatura Mínima:-1°
Presión Máxima:997.000 Hpa    Presión Mínima:993.300 Hpa


Volver